createdAt,value
2023-06-28T00:01:14.686Z,100037.66
2023-06-28T00:03:41.602Z,100041.28
2023-06-28T00:06:08.687Z,100043.31
2023-06-28T00:08:35.277Z,100038.09
2023-06-28T00:11:01.935Z,100037.06
2023-06-28T00:13:28.698Z,100042.16
2023-06-28T00:15:55.255Z,100046.94
2023-06-28T00:18:23.237Z,100049.25
2023-06-28T00:20:49.852Z,100036.78
2023-06-28T00:23:16.562Z,100044.00
2023-06-28T00:25:43.142Z,100049.50
2023-06-28T00:28:09.762Z,100047.91
2023-06-28T00:30:36.350Z,100049.34
2023-06-28T00:33:03.193Z,100054.97
2023-06-28T00:35:31.309Z,100059.06
2023-06-28T00:37:57.936Z,100050.66
2023-06-28T00:40:24.602Z,100052.97
2023-06-28T00:42:51.468Z,100056.88
2023-06-28T00:45:18.037Z,100066.09
2023-06-28T00:47:44.956Z,100055.66
2023-06-28T00:50:12.056Z,100062.88
2023-06-28T00:52:40.069Z,100062.56
2023-06-28T00:55:07.185Z,100060.22
2023-06-28T00:57:34.016Z,100068.06
2023-06-28T01:00:01.363Z,100065.72
2023-06-28T01:02:28.230Z,100060.31
2023-06-28T01:04:55.069Z,100067.53
2023-06-28T01:07:22.084Z,100064.06
2023-06-28T01:09:50.666Z,100061.91
2023-06-28T01:12:17.538Z,100064.78
2023-06-28T01:14:44.181Z,100069.41
2023-06-28T01:17:10.960Z,100060.72
2023-06-28T01:19:37.596Z,100059.41
2023-06-28T01:22:05.860Z,100069.91
2023-06-28T01:24:34.120Z,100068.28
2023-06-28T01:27:01.230Z,100060.00
2023-06-28T01:29:27.987Z,100062.75
2023-06-28T01:31:56.214Z,100061.25
2023-06-28T01:34:23.078Z,100064.34
2023-06-28T01:36:51.697Z,100066.38
2023-06-28T01:39:19.407Z,100060.41
2023-06-28T01:41:50.305Z,100066.78
2023-06-28T01:44:17.643Z,100066.19
2023-06-28T01:46:45.039Z,100067.16
2023-06-28T01:49:11.823Z,100061.22
2023-06-28T01:51:38.782Z,100068.72
2023-06-28T01:54:05.631Z,100064.03
2023-06-28T01:56:32.766Z,100069.78
2023-06-28T01:59:00.776Z,100066.41
2023-06-28T02:01:27.949Z,100062.94
2023-06-28T02:03:54.669Z,100072.06
2023-06-28T02:06:21.433Z,100078.69
2023-06-28T02:08:48.017Z,100074.31
2023-06-28T02:11:14.764Z,100082.28
2023-06-28T02:13:41.430Z,100074.81
2023-06-28T02:16:09.517Z,100083.13
2023-06-28T02:18:36.175Z,100072.13
2023-06-28T02:21:02.989Z,100082.66
2023-06-28T02:23:29.592Z,100072.97
2023-06-28T02:25:58.832Z,100068.03
2023-06-28T02:28:25.851Z,100069.53
2023-06-28T02:30:52.481Z,100066.78
2023-06-28T02:33:20.478Z,100064.88
2023-06-28T02:35:47.097Z,100061.00
2023-06-28T02:38:13.856Z,100068.84
2023-06-28T02:40:40.768Z,100065.81
2023-06-28T02:43:07.483Z,100066.84
2023-06-28T02:45:34.253Z,100056.09
2023-06-28T02:48:00.934Z,100059.19
2023-06-28T02:50:28.952Z,100060.31
2023-06-28T02:52:55.715Z,100055.50
2023-06-28T02:55:22.299Z,100045.38
2023-06-28T02:57:48.997Z,100045.50
2023-06-28T03:00:16.202Z,100046.72
2023-06-28T03:02:42.923Z,100053.88
2023-06-28T03:05:09.593Z,100061.63
2023-06-28T03:07:37.609Z,100052.75
2023-06-28T03:10:05.107Z,100044.63
2023-06-28T03:12:31.776Z,100049.84
2023-06-28T03:14:58.593Z,100045.22
2023-06-28T03:17:25.752Z,100041.81
2023-06-28T03:19:52.493Z,100050.81
2023-06-28T03:22:19.315Z,100047.13
2023-06-28T03:24:47.637Z,100047.31
2023-06-28T03:27:14.241Z,100043.75
2023-06-28T03:29:40.985Z,100050.78
2023-06-28T03:32:09.196Z,100047.09
2023-06-28T03:34:35.840Z,100051.78
2023-06-28T03:37:05.008Z,100055.47
2023-06-28T03:39:32.240Z,100058.75
2023-06-28T03:42:00.223Z,100057.06
2023-06-28T03:44:26.954Z,100046.97
2023-06-28T03:46:53.567Z,100045.78
2023-06-28T03:49:20.669Z,100052.78
2023-06-28T03:51:47.404Z,100042.25
2023-06-28T03:54:13.990Z,100044.09
2023-06-28T03:56:40.835Z,100054.81
2023-06-28T03:59:08.826Z,100048.16
2023-06-28T04:01:35.633Z,100045.25
2023-06-28T04:04:02.356Z,100046.41
2023-06-28T04:06:28.989Z,100040.72
2023-06-28T04:08:55.578Z,100037.13
2023-06-28T04:11:22.172Z,100039.34
2023-06-28T04:13:54.915Z,100044.16
2023-06-28T04:16:22.996Z,100040.56
2023-06-28T04:18:49.586Z,100042.66
2023-06-28T04:21:16.193Z,100044.00
2023-06-28T04:23:42.895Z,100032.59
2023-06-28T04:26:09.483Z,100036.28
2023-06-28T04:28:36.055Z,100035.69
2023-06-28T04:31:02.933Z,100035.88
2023-06-28T04:33:30.969Z,100035.97
2023-06-28T04:35:57.615Z,100038.09
2023-06-28T04:38:24.402Z,100042.03
2023-06-28T04:40:51.015Z,100043.63
2023-06-28T04:43:17.610Z,100035.44
2023-06-28T04:45:44.342Z,100043.59
2023-06-28T04:48:10.960Z,100039.13
2023-06-28T04:50:39.258Z,100039.34
2023-06-28T04:53:06.705Z,100040.72
2023-06-28T04:55:34.250Z,100036.25
2023-06-28T04:58:01.454Z,100033.16
2023-06-28T05:00:28.142Z,100034.13
2023-06-28T05:02:54.993Z,100027.38
2023-06-28T05:05:21.656Z,100026.16
2023-06-28T05:07:49.762Z,100034.16
2023-06-28T05:10:16.391Z,100026.72
2023-06-28T05:12:43.205Z,100034.97
2023-06-28T05:15:10.793Z,100029.84
2023-06-28T05:17:37.471Z,100035.22
2023-06-28T05:20:05.300Z,100028.25
2023-06-28T05:22:31.937Z,100040.97
2023-06-28T05:24:59.894Z,100032.59
2023-06-28T05:27:26.769Z,100038.94
2023-06-28T05:29:53.388Z,100042.31
2023-06-28T05:32:20.029Z,100039.59
2023-06-28T05:34:46.675Z,100041.72
2023-06-28T05:37:13.277Z,100037.69
2023-06-28T05:39:40.115Z,100041.41
2023-06-28T05:42:08.437Z,100044.66
2023-06-28T05:44:35.008Z,100048.53
2023-06-28T05:47:01.753Z,100041.44
2023-06-28T05:49:28.331Z,100046.41
2023-06-28T05:51:55.217Z,100044.00
2023-06-28T05:54:21.824Z,100047.09
2023-06-28T05:56:48.475Z,100039.84
2023-06-28T05:59:16.422Z,100040.06
2023-06-28T06:01:43.074Z,100033.03
2023-06-28T06:04:09.767Z,100038.25
2023-06-28T06:06:36.713Z,100041.25
2023-06-28T06:09:03.327Z,100045.69
2023-06-28T06:11:29.932Z,100042.53
2023-06-28T06:13:56.653Z,100037.94
2023-06-28T06:16:25.286Z,100029.88
2023-06-28T06:18:51.908Z,100037.94
2023-06-28T06:21:19.111Z,100034.31
2023-06-28T06:23:46.085Z,100036.91
2023-06-28T06:26:12.960Z,100033.13
2023-06-28T06:28:39.599Z,100035.56
2023-06-28T06:31:06.241Z,100029.81
2023-06-28T06:33:34.528Z,100034.84
2023-06-28T06:36:01.148Z,100035.25
2023-06-28T06:38:27.728Z,100035.56
2023-06-28T06:40:54.440Z,100037.88
2023-06-28T06:43:21.082Z,100036.28
2023-06-28T06:45:48.301Z,100036.19
2023-06-28T06:48:14.950Z,100035.47
2023-06-28T06:50:43.464Z,100036.81
2023-06-28T06:53:10.328Z,100041.66
2023-06-28T06:55:36.959Z,100040.72
2023-06-28T06:58:03.550Z,100038.06
2023-06-28T07:00:30.153Z,100043.41
2023-06-28T07:02:56.895Z,100053.06
2023-06-28T07:05:23.567Z,100052.28
2023-06-28T07:07:51.551Z,100065.31
2023-06-28T07:10:18.318Z,100057.31
2023-06-28T07:12:47.751Z,100057.44
2023-06-28T07:15:14.383Z,100060.97
2023-06-28T07:17:41.517Z,100060.31
2023-06-28T07:20:09.228Z,100049.75
2023-06-28T07:22:35.699Z,100048.72
2023-06-28T07:25:04.116Z,100048.88
2023-06-28T07:27:30.794Z,100046.81
2023-06-28T07:29:57.429Z,100053.25
2023-06-28T07:32:24.227Z,100051.84
2023-06-28T07:34:51.038Z,100051.84
2023-06-28T07:37:17.635Z,100049.59
2023-06-28T07:39:44.242Z,100050.09
2023-06-28T07:42:12.301Z,100052.38
2023-06-28T07:44:38.920Z,100057.75
2023-06-28T07:47:05.712Z,100061.22
2023-06-28T07:49:32.469Z,100061.41
2023-06-28T07:51:59.327Z,100059.47
2023-06-28T07:54:34.067Z,100054.25
2023-06-28T07:57:01.532Z,100057.56
2023-06-28T07:59:29.452Z,100054.78
2023-06-28T08:01:56.360Z,100055.44
2023-06-28T08:04:23.095Z,100061.81
2023-06-28T08:06:49.853Z,100062.28
2023-06-28T08:09:16.776Z,100060.22
2023-06-28T08:11:43.565Z,100058.34
2023-06-28T08:14:10.278Z,100056.34
2023-06-28T08:16:38.460Z,100057.72
2023-06-28T08:19:05.084Z,100060.69
2023-06-28T08:21:31.716Z,100051.50
2023-06-28T08:23:58.465Z,100056.72
2023-06-28T08:26:25.120Z,100058.94
2023-06-28T08:29:00.513Z,100060.00
2023-06-28T08:31:27.752Z,100058.59
2023-06-28T08:33:56.760Z,100057.03
2023-06-28T08:36:23.371Z,100056.38
2023-06-28T08:38:49.973Z,100054.63
2023-06-28T08:41:18.945Z,100051.00
2023-06-28T08:43:48.939Z,100051.16
2023-06-28T08:46:15.692Z,100050.28
2023-06-28T08:48:42.881Z,100048.91
2023-06-28T08:51:11.023Z,100058.28
2023-06-28T08:53:38.701Z,100057.56
2023-06-28T08:56:05.879Z,100064.66
2023-06-28T08:58:34.154Z,100060.88
2023-06-28T09:01:01.583Z,100055.66
2023-06-28T09:03:29.592Z,100061.88
2023-06-28T09:05:56.996Z,100062.75
2023-06-28T09:08:26.175Z,100065.78
2023-06-28T09:10:52.893Z,100057.31
2023-06-28T09:13:19.639Z,100064.66
2023-06-28T09:15:46.676Z,100065.69
2023-06-28T09:18:16.086Z,100069.28
2023-06-28T09:20:49.390Z,100065.44
2023-06-28T09:23:23.333Z,100063.75
2023-06-28T09:25:51.656Z,100065.59
2023-06-28T09:28:18.835Z,100061.59
2023-06-28T09:30:51.410Z,100068.03
2023-06-28T09:33:18.805Z,100061.28
2023-06-28T09:35:45.946Z,100061.97
2023-06-28T09:38:13.328Z,100060.78
2023-06-28T09:40:39.913Z,100065.34
2023-06-28T09:43:15.077Z,100057.38
2023-06-28T09:45:41.998Z,100056.69
2023-06-28T09:48:08.932Z,100053.06
2023-06-28T09:50:37.067Z,100055.66
2023-06-28T09:53:03.956Z,100053.91
2023-06-28T09:55:30.699Z,100050.22
2023-06-28T09:57:58.734Z,100050.56
2023-06-28T10:00:28.917Z,100047.78
2023-06-28T10:02:59.633Z,100062.41
2023-06-28T10:05:27.334Z,100061.28
2023-06-28T10:07:55.092Z,100060.50
2023-06-28T10:10:22.110Z,100065.88
2023-06-28T10:12:51.250Z,100064.13
2023-06-28T10:15:22.225Z,100060.47
2023-06-28T10:17:51.028Z,100067.47
2023-06-28T10:20:17.969Z,100065.88
2023-06-28T10:22:44.986Z,100060.84
2023-06-28T10:25:12.911Z,100054.59
2023-06-28T10:27:40.231Z,100064.81
2023-06-28T10:30:08.202Z,100066.69
2023-06-28T10:32:36.173Z,100060.44
2023-06-28T10:35:07.405Z,100056.84
2023-06-28T10:37:34.120Z,100051.28
2023-06-28T10:40:00.769Z,100051.63
2023-06-28T10:42:38.594Z,100055.81
2023-06-28T10:45:06.529Z,100056.84
2023-06-28T10:47:34.597Z,100055.97
2023-06-28T10:50:11.511Z,100057.97
2023-06-28T10:52:46.059Z,100051.84
2023-06-28T10:55:12.629Z,100060.00
2023-06-28T10:57:40.121Z,100046.28
2023-06-28T11:00:09.107Z,100050.78
2023-06-28T11:02:52.872Z,100048.22
2023-06-28T11:05:39.166Z,100054.03
2023-06-28T11:08:10.454Z,100056.97
2023-06-28T11:10:38.885Z,100050.78
2023-06-28T11:13:08.412Z,100048.91
2023-06-28T11:15:36.024Z,100043.22
2023-06-28T11:18:16.476Z,100045.53
2023-06-28T11:20:50.794Z,100045.50
2023-06-28T11:23:30.652Z,100045.88
2023-06-28T11:25:58.280Z,100043.22
2023-06-28T11:28:29.732Z,100038.16
2023-06-28T11:30:56.983Z,100035.25
2023-06-28T11:33:23.910Z,100022.50
2023-06-28T11:35:52.317Z,100023.03
2023-06-28T11:38:19.617Z,100027.47
2023-06-28T11:40:47.630Z,100022.00
2023-06-28T11:43:14.367Z,100014.59
2023-06-28T11:45:41.237Z,100022.22
2023-06-28T11:48:10.298Z,100026.78
2023-06-28T11:50:37.043Z,100020.03
2023-06-28T11:53:05.471Z,100011.28
2023-06-28T11:55:32.103Z,100015.16
2023-06-28T11:57:58.902Z,100007.88
2023-06-28T12:00:38.052Z,100007.03
2023-06-28T12:03:04.779Z,100005.78
2023-06-28T12:05:31.644Z,99999.28
2023-06-28T12:07:58.531Z,100002.94
2023-06-28T12:10:33.501Z,99999.94
2023-06-28T12:13:00.110Z,100007.25
2023-06-28T12:15:26.955Z,100007.03
2023-06-28T12:17:53.589Z,100004.66
2023-06-28T12:20:23.015Z,100006.69
2023-06-28T12:22:49.629Z,100007.97
2023-06-28T12:25:27.084Z,100003.41
2023-06-28T12:28:01.559Z,100015.31
2023-06-28T12:30:28.433Z,100014.72
2023-06-28T12:32:57.740Z,100014.63
2023-06-28T12:35:25.375Z,100017.44
2023-06-28T12:37:56.111Z,100007.78
2023-06-28T12:40:23.417Z,100014.66
2023-06-28T12:43:13.209Z,100003.78
2023-06-28T12:45:44.607Z,100011.66
2023-06-28T12:48:11.719Z,100010.84
2023-06-28T12:50:38.346Z,100012.72
2023-06-28T12:53:05.056Z,100012.38
2023-06-28T12:55:31.652Z,100010.41
2023-06-28T12:57:58.248Z,100009.00
2023-06-28T13:00:26.355Z,100006.44
2023-06-28T13:02:53.008Z,100010.97
2023-06-28T13:05:19.789Z,100007.81
2023-06-28T13:07:46.431Z,100009.59
2023-06-28T13:10:13.216Z,100009.41
2023-06-28T13:12:39.832Z,100003.41
2023-06-28T13:15:07.736Z,100005.53
2023-06-28T13:17:35.873Z,100004.56
2023-06-28T13:20:03.422Z,100002.91
2023-06-28T13:22:30.673Z,100006.81
2023-06-28T13:24:57.296Z,99993.25
2023-06-28T13:27:23.903Z,99995.41
2023-06-28T13:29:50.537Z,99995.00
2023-06-28T13:32:17.119Z,100002.09
2023-06-28T13:34:45.114Z,99991.75
2023-06-28T13:37:26.808Z,99990.00
2023-06-28T13:39:54.503Z,99986.50
2023-06-28T13:42:21.102Z,99986.25
2023-06-28T13:44:47.711Z,99986.97
2023-06-28T13:47:14.304Z,99989.16
2023-06-28T13:49:40.930Z,99991.75
2023-06-28T13:52:09.100Z,99992.38
2023-06-28T13:54:35.699Z,99986.56
2023-06-28T13:57:02.290Z,99982.47
2023-06-28T13:59:28.885Z,99977.94
2023-06-28T14:01:55.530Z,99985.50
2023-06-28T14:04:22.210Z,99990.66
2023-06-28T14:06:48.879Z,99984.13
2023-06-28T14:09:16.908Z,99980.66
2023-06-28T14:11:43.882Z,99981.81
2023-06-28T14:14:10.620Z,99970.81
2023-06-28T14:16:37.219Z,99974.94
2023-06-28T14:19:03.841Z,99973.19
2023-06-28T14:21:30.719Z,99973.22
2023-06-28T14:23:57.309Z,99968.25
2023-06-28T14:26:25.423Z,99975.91
2023-06-28T14:28:52.517Z,99968.88
2023-06-28T14:31:19.338Z,99973.66
2023-06-28T14:33:46.995Z,99974.06
2023-06-28T14:36:13.686Z,99965.88
2023-06-28T14:38:40.384Z,99963.72
2023-06-28T14:41:07.008Z,99964.59
2023-06-28T14:43:34.992Z,99966.53
2023-06-28T14:46:01.617Z,99966.72
2023-06-28T14:48:28.229Z,99976.16
2023-06-28T14:50:55.206Z,99970.13
2023-06-28T14:53:21.781Z,99973.53
2023-06-28T14:55:48.393Z,99963.78
2023-06-28T14:58:15.165Z,99961.84
2023-06-28T15:00:43.143Z,99961.13
2023-06-28T15:03:09.775Z,99958.84
2023-06-28T15:05:36.563Z,99955.63
2023-06-28T15:08:03.225Z,99959.78
2023-06-28T15:10:29.854Z,99956.69
2023-06-28T15:12:56.611Z,99955.97
2023-06-28T15:15:23.250Z,99956.97
2023-06-28T15:17:51.369Z,99953.72
2023-06-28T15:20:30.183Z,99945.34
2023-06-28T15:23:05.006Z,99947.41
2023-06-28T15:25:31.757Z,99939.03
2023-06-28T15:27:58.542Z,99943.03
2023-06-28T15:30:25.223Z,99937.97
2023-06-28T15:32:53.213Z,99944.94
2023-06-28T15:35:20.014Z,99946.13
2023-06-28T15:37:46.650Z,99941.41
2023-06-28T15:40:14.468Z,99945.88
2023-06-28T15:42:41.229Z,99942.34
2023-06-28T15:45:08.624Z,99940.09
2023-06-28T15:47:35.269Z,99939.09
2023-06-28T15:50:03.774Z,99940.75
2023-06-28T15:52:30.497Z,99938.38
2023-06-28T15:54:58.750Z,99938.91
2023-06-28T15:57:25.473Z,99931.06
2023-06-28T15:59:52.117Z,99929.13
2023-06-28T16:02:18.917Z,99931.72
2023-06-28T16:04:45.740Z,99927.38
2023-06-28T16:07:13.714Z,99925.69
2023-06-28T16:09:40.356Z,99923.75
2023-06-28T16:12:08.329Z,99924.06
2023-06-28T16:14:35.530Z,99915.47
2023-06-28T16:17:04.454Z,99922.16
2023-06-28T16:19:31.183Z,99916.97
2023-06-28T16:21:57.785Z,99908.50
2023-06-28T16:24:25.923Z,99907.53
2023-06-28T16:26:52.627Z,99905.44
2023-06-28T16:29:19.256Z,99904.19
2023-06-28T16:31:45.946Z,99903.38
2023-06-28T16:34:12.550Z,99890.91
2023-06-28T16:36:39.168Z,99893.13
2023-06-28T16:39:05.904Z,99890.94
2023-06-28T16:41:33.900Z,99889.13
2023-06-28T16:44:00.521Z,99883.78
2023-06-28T16:46:27.170Z,99886.91
2023-06-28T16:48:53.835Z,99886.72
2023-06-28T16:51:20.467Z,99895.19
2023-06-28T16:53:47.354Z,99892.47
2023-06-28T16:56:14.168Z,99894.38
2023-06-28T16:58:42.152Z,99889.19
2023-06-28T17:01:08.735Z,99893.44
2023-06-28T17:03:35.615Z,99889.53
2023-06-28T17:06:02.325Z,99887.78
2023-06-28T17:08:28.951Z,99898.13
2023-06-28T17:10:55.767Z,99892.81
2023-06-28T17:13:22.343Z,99886.38
2023-06-28T17:15:50.288Z,99884.84
2023-06-28T17:18:17.018Z,99892.31
2023-06-28T17:20:43.959Z,99892.03
2023-06-28T17:23:10.691Z,99894.94
2023-06-28T17:25:37.299Z,99894.38
2023-06-28T17:28:04.439Z,99892.13
2023-06-28T17:30:31.048Z,99889.31
2023-06-28T17:32:59.089Z,99893.44
2023-06-28T17:35:25.787Z,99887.66
2023-06-28T17:37:52.357Z,99893.56
2023-06-28T17:40:19.159Z,99895.31
2023-06-28T17:42:45.884Z,99891.25
2023-06-28T17:45:12.664Z,99883.03
2023-06-28T17:47:39.801Z,99893.03
2023-06-28T17:50:09.614Z,99895.78
2023-06-28T17:52:36.210Z,99893.84
2023-06-28T17:55:02.841Z,99891.81
2023-06-28T17:57:29.642Z,99904.41
2023-06-28T17:59:56.280Z,99903.91
2023-06-28T18:02:22.895Z,99895.78
2023-06-28T18:04:49.724Z,99900.97
2023-06-28T18:07:17.746Z,99895.56
2023-06-28T18:09:44.399Z,99896.03
2023-06-28T18:12:11.338Z,99904.09
2023-06-28T18:14:38.294Z,99891.72
2023-06-28T18:17:05.058Z,99898.28
2023-06-28T18:19:31.934Z,99902.88
2023-06-28T18:21:58.696Z,99903.34
2023-06-28T18:24:26.697Z,99907.16
2023-06-28T18:26:53.414Z,99898.34
2023-06-28T18:29:20.021Z,99900.44
2023-06-28T18:31:46.996Z,99903.88
2023-06-28T18:34:13.746Z,99891.56
2023-06-28T18:36:40.334Z,99902.94
2023-06-28T18:39:07.134Z,99897.63
2023-06-28T18:41:38.029Z,99895.38
2023-06-28T18:44:04.969Z,99904.41
2023-06-28T18:46:31.743Z,99896.13
2023-06-28T18:48:58.370Z,99894.75
2023-06-28T18:51:25.005Z,99907.28
2023-06-28T18:53:51.729Z,99902.28
2023-06-28T18:56:18.231Z,99901.09
2023-06-28T18:58:46.195Z,99891.91
2023-06-28T19:01:12.859Z,99896.16
2023-06-28T19:03:39.585Z,99892.47
2023-06-28T19:06:06.232Z,99889.78
2023-06-28T19:08:32.974Z,99883.31
2023-06-28T19:11:00.722Z,99885.75
2023-06-28T19:13:27.334Z,99884.75
2023-06-28T19:15:55.282Z,99888.94
2023-06-28T19:18:22.876Z,99895.03
2023-06-28T19:20:49.496Z,99892.09
2023-06-28T19:23:16.290Z,99890.72
2023-06-28T19:25:45.730Z,99898.03
2023-06-28T19:28:12.340Z,99889.88
2023-06-28T19:30:39.096Z,99884.69
2023-06-28T19:33:13.216Z,99899.78
2023-06-28T19:35:39.832Z,99889.03
2023-06-28T19:38:06.448Z,99890.22
2023-06-28T19:40:33.121Z,99894.22
2023-06-28T19:42:59.850Z,99887.16
2023-06-28T19:45:26.630Z,99888.38
2023-06-28T19:47:53.285Z,99888.38
2023-06-28T19:50:21.445Z,99899.13
2023-06-28T19:52:48.349Z,99895.38
2023-06-28T19:55:15.578Z,99888.78
2023-06-28T19:57:42.158Z,99895.19
2023-06-28T20:00:09.876Z,99889.28
2023-06-28T20:02:36.598Z,99891.06
2023-06-28T20:05:03.622Z,99890.91
2023-06-28T20:07:31.899Z,99896.97
2023-06-28T20:10:03.691Z,99880.34
2023-06-28T20:12:34.155Z,99880.69
2023-06-28T20:15:00.787Z,99889.34
2023-06-28T20:17:27.613Z,99896.81
2023-06-28T20:19:54.227Z,99887.78
2023-06-28T20:22:20.990Z,99901.81
2023-06-28T20:24:48.936Z,99890.72
2023-06-28T20:27:15.570Z,99888.50
2023-06-28T20:29:42.188Z,99887.09
2023-06-28T20:32:09.265Z,99894.91
2023-06-28T20:34:36.065Z,99886.59
2023-06-28T20:37:02.681Z,99886.94
2023-06-28T20:39:29.292Z,99885.03
2023-06-28T20:41:57.378Z,99876.56
2023-06-28T20:44:24.041Z,99887.28
2023-06-28T20:46:50.801Z,99886.78
2023-06-28T20:49:17.601Z,99887.09
2023-06-28T20:51:44.225Z,99884.69
2023-06-28T20:54:10.848Z,99884.84
2023-06-28T20:56:40.735Z,99887.97
2023-06-28T20:59:08.681Z,99882.94
2023-06-28T21:01:35.497Z,99886.59
2023-06-28T21:04:02.126Z,99892.69
2023-06-28T21:06:28.747Z,99885.38
2023-06-28T21:08:55.335Z,99874.28
2023-06-28T21:11:22.172Z,99884.53
2023-06-28T21:13:48.769Z,99880.03
2023-06-28T21:16:16.735Z,99882.94
2023-06-28T21:18:43.389Z,99884.88
2023-06-28T21:21:10.039Z,99885.72
2023-06-28T21:23:36.666Z,99881.22
2023-06-28T21:26:03.319Z,99873.25
2023-06-28T21:28:29.938Z,99884.34
2023-06-28T21:30:56.525Z,99882.28
2023-06-28T21:33:24.539Z,99885.38
2023-06-28T21:35:51.149Z,99882.28
2023-06-28T21:38:17.769Z,99887.47
2023-06-28T21:40:44.369Z,99885.72
2023-06-28T21:43:10.987Z,99879.81
2023-06-28T21:45:37.578Z,99884.34
2023-06-28T21:48:04.606Z,99877.03
2023-06-28T21:50:32.735Z,99886.25
2023-06-28T21:52:59.566Z,99892.66
2023-06-28T21:55:26.377Z,99893.72
2023-06-28T21:57:52.956Z,99890.41
2023-06-28T22:00:21.557Z,99886.41
2023-06-28T22:02:48.459Z,99888.13
2023-06-28T22:05:15.178Z,99888.31
2023-06-28T22:07:43.668Z,99883.97
2023-06-28T22:10:10.991Z,99885.22
2023-06-28T22:12:38.241Z,99885.22
2023-06-28T22:15:05.864Z,99880.53
2023-06-28T22:17:32.829Z,99876.22
2023-06-28T22:19:59.549Z,99881.25
2023-06-28T22:22:26.429Z,99880.34
2023-06-28T22:24:54.559Z,99878.47
2023-06-28T22:27:21.155Z,99877.91
2023-06-28T22:29:47.746Z,99875.69
2023-06-28T22:32:14.651Z,99880.34
2023-06-28T22:34:41.252Z,99873.78
2023-06-28T22:37:07.849Z,99874.97
2023-06-28T22:39:34.946Z,99872.06
2023-06-28T22:42:03.243Z,99872.38
2023-06-28T22:44:29.968Z,99867.38
2023-06-28T22:46:56.554Z,99863.91
2023-06-28T22:49:23.375Z,99866.16
2023-06-28T22:51:49.968Z,99863.38
2023-06-28T22:54:25.094Z,99861.13
2023-06-28T22:56:51.704Z,99858.88
2023-06-28T22:59:20.208Z,99862.69
2023-06-28T23:01:47.493Z,99867.38
2023-06-28T23:04:14.142Z,99867.03
2023-06-28T23:06:40.760Z,99865.13
2023-06-28T23:09:07.565Z,99863.72
2023-06-28T23:11:34.193Z,99859.22
2023-06-28T23:14:00.821Z,99865.97
2023-06-28T23:16:28.932Z,99862.53
2023-06-28T23:18:55.766Z,99852.28
2023-06-28T23:21:22.932Z,99854.88
2023-06-28T23:23:49.569Z,99855.41
2023-06-28T23:26:16.380Z,99846.41
2023-06-28T23:28:42.963Z,99853.66
2023-06-28T23:31:09.659Z,99852.28
2023-06-28T23:33:39.826Z,99845.53
2023-06-28T23:36:06.710Z,99838.78
2023-06-28T23:38:33.331Z,99843.47
2023-06-28T23:41:00.072Z,99841.38
2023-06-28T23:43:26.834Z,99836.16
2023-06-28T23:45:53.469Z,99836.50
2023-06-28T23:48:20.067Z,99842.75
2023-06-28T23:50:48.185Z,99832.38
2023-06-28T23:53:14.980Z,99839.81
2023-06-28T23:55:42.043Z,99834.28
2023-06-28T23:58:08.797Z,99834.78
